Time;durP1;ratioP1;P1;durP2;ratioP2;P2;SDS_P1;SDS_P2;PMS_P1;PMS_P2;Temp;Humidity;BMP_temperature;BMP_pressure;BME280_temperature;BME280_humidity;BME280_pressure;Samples;Min_cycle;Max_cycle;Signal;HPM_P1;HPM_P2
2021/10/19 00:00:41;;;;;;;20.03;14.20;;;;;;;8.35;100.00;97483.09;5043932;28;20292;-72
2021/10/19 00:03:08;;;;;;;19.47;12.30;;;;;;;8.47;100.00;97488.56;5055031;28;20190;-71
2021/10/19 00:05:34;;;;;;;17.57;12.73;;;;;;;8.45;100.00;97482.72;5066179;28;20581;-71
2021/10/19 00:07:59;;;;;;;20.00;13.23;;;;;;;8.40;100.00;97487.72;5054011;28;20178;-73
2021/10/19 00:10:25;;;;;;;22.33;13.40;;;;;;;8.43;100.00;97488.13;5062678;28;20185;-72
2021/10/19 00:12:50;;;;;;;22.67;13.33;;;;;;;8.44;100.00;97491.56;5059096;28;20268;-72
2021/10/19 00:15:18;;;;;;;18.20;12.37;;;;;;;8.32;100.00;97494.72;5052513;28;20610;-72
2021/10/19 00:17:45;;;;;;;21.07;13.10;;;;;;;8.45;100.00;97493.97;5067215;28;20631;-72
2021/10/19 00:20:13;;;;;;;19.07;12.67;;;;;;;8.37;100.00;97488.09;5059871;28;20189;-72
2021/10/19 00:22:39;;;;;;;17.83;12.90;;;;;;;8.48;100.00;97479.69;5068080;28;20237;-73
2021/10/19 00:25:06;;;;;;;20.63;13.60;;;;;;;8.51;100.00;97477.53;5071993;28;20315;-72
2021/10/19 00:27:32;;;;;;;18.33;12.67;;;;;;;8.40;100.00;97480.69;5054996;28;20220;-71
2021/10/19 00:29:59;;;;;;;23.07;13.73;;;;;;;8.52;100.00;97478.34;5065934;28;20261;-70
2021/10/19 00:32:24;;;;;;;19.57;13.50;;;;;;;8.51;100.00;97477.53;5062448;28;20208;-71
2021/10/19 00:34:50;;;;;;;21.53;13.83;;;;;;;8.58;100.00;97472.31;5053975;28;20197;-71
2021/10/19 00:37:15;;;;;;;16.70;12.17;;;;;;;8.59;100.00;97473.91;5067531;28;20242;-71
2021/10/19 00:39:40;;;;;;;16.40;11.97;;;;;;;8.62;100.00;97481.38;5055414;28;20653;-70
2021/10/19 00:42:06;;;;;;;19.20;12.13;;;;;;;8.47;100.00;97473.66;5065238;28;20206;-71
2021/10/19 00:44:31;;;;;;;15.00;11.90;;;;;;;8.61;100.00;97474.53;5066103;28;20268;-71
2021/10/19 00:46:58;;;;;;;19.23;11.70;;;;;;;8.48;100.00;97470.06;5062707;28;20247;-71
2021/10/19 00:49:24;;;;;;;16.93;12.10;;;;;;;8.53;100.00;97472.88;5072504;28;20201;-71
2021/10/19 00:51:50;;;;;;;18.63;11.47;;;;;;;8.62;100.00;97465.69;5059852;28;20242;-71
2021/10/19 00:54:15;;;;;;;17.87;11.40;;;;;;;8.63;100.00;97460.28;5068257;28;20182;-71
2021/10/19 00:56:41;;;;;;;24.53;10.97;;;;;;;8.72;100.00;97455.66;5038801;28;20271;-71
2021/10/19 00:59:07;;;;;;;17.60;11.43;;;;;;;8.72;100.00;97445.22;5070925;28;20532;-71
2021/10/19 01:01:34;;;;;;;17.63;10.77;;;;;;;8.79;100.00;97435.56;5058514;28;20244;-71
2021/10/19 01:04:00;;;;;;;15.90;10.90;;;;;;;8.87;99.98;97440.59;5068088;28;20623;-71
2021/10/19 01:06:25;;;;;;;15.30;11.90;;;;;;;8.77;100.00;97430.53;5065846;28;20188;-71
2021/10/19 01:08:51;;;;;;;16.77;11.23;;;;;;;8.72;100.00;97438.19;5061234;28;20189;-71
2021/10/19 01:11:17;;;;;;;17.07;11.60;;;;;;;8.75;99.56;97435.16;5071194;28;20221;-71
2021/10/19 01:13:42;;;;;;;18.00;12.40;;;;;;;8.72;99.55;97434.75;5057084;28;20197;-71
2021/10/19 01:16:10;;;;;;;17.33;11.83;;;;;;;8.61;100.00;97438.75;5063875;28;20228;-71
2021/10/19 01:18:37;;;;;;;18.07;12.13;;;;;;;8.41;100.00;97439.72;5069765;28;20193;-71
2021/10/19 01:21:03;;;;;;;15.43;11.03;;;;;;;8.39;100.00;97447.75;5056962;28;20205;-71
2021/10/19 01:23:29;;;;;;;15.90;11.63;;;;;;;8.39;100.00;97447.75;5071237;28;20239;-71
2021/10/19 01:25:54;;;;;;;15.60;11.17;;;;;;;8.42;100.00;97451.75;5038600;28;20179;-71
2021/10/19 01:28:20;;;;;;;15.43;10.97;;;;;;;8.36;100.00;97449.94;5067706;28;20575;-71
2021/10/19 01:30:49;;;;;;;17.90;11.10;;;;;;;8.43;99.96;97450.75;5059605;28;20182;-71
2021/10/19 01:33:14;;;;;;;16.27;10.93;;;;;;;8.31;100.00;97440.06;5069317;28;20186;-72
2021/10/19 01:35:46;;;;;;;15.20;11.10;;;;;;;8.26;100.00;97451.06;5063596;28;20193;-71
2021/10/19 01:38:18;;;;;;;14.43;10.53;;;;;;;8.26;100.00;97439.81;5062218;28;20273;-71
2021/10/19 01:40:44;;;;;;;15.37;10.20;;;;;;;8.13;100.00;97445.81;5071538;28;20239;-72
2021/10/19 01:43:11;;;;;;;12.53;9.63;;;;;;;8.26;100.00;97447.66;5058977;28;20209;-71
2021/10/19 01:45:37;;;;;;;13.20;9.57;;;;;;;8.37;100.00;97443.69;5052403;28;20182;-72
2021/10/19 01:48:03;;;;;;;15.20;10.13;;;;;;;8.45;99.93;97453.97;5055242;28;20182;-72
2021/10/19 01:50:28;;;;;;;13.07;9.23;;;;;;;8.43;100.00;97454.16;5069438;28;20653;-71
2021/10/19 01:52:53;;;;;;;13.60;9.43;;;;;;;8.60;99.15;97450.19;5040199;28;20261;-72
2021/10/19 01:55:19;;;;;;;13.37;9.67;;;;;;;8.77;98.38;97442.81;5069572;28;20178;-72
2021/10/19 01:57:44;;;;;;;14.00;9.53;;;;;;;8.79;98.35;97440.81;5038083;28;20174;-71
2021/10/19 02:00:11;;;;;;;16.03;9.10;;;;;;;8.64;99.12;97433.13;5040913;28;20254;-72
2021/10/19 02:02:38;;;;;;;10.87;8.77;;;;;;;8.83;98.32;97433.34;5057698;28;20217;-72
2021/10/19 02:05:04;;;;;;;11.40;9.00;;;;;;;8.93;97.77;97439.00;5061608;28;20247;-72
2021/10/19 02:07:30;;;;;;;11.10;8.37;;;;;;;8.94;97.92;97438.00;5071049;28;20256;-72
2021/10/19 02:09:55;;;;;;;11.10;8.53;;;;;;;8.99;97.10;97431.16;5055585;28;20196;-72
2021/10/19 02:12:20;;;;;;;10.67;8.30;;;;;;;9.08;97.18;97432.56;5062788;28;20694;-71
2021/10/19 02:14:46;;;;;;;10.13;8.23;;;;;;;9.13;96.89;97434.59;5065563;28;20260;-72
2021/10/19 02:17:11;;;;;;;9.40;7.57;;;;;;;9.19;95.89;97421.50;5059711;28;20181;-72
2021/10/19 02:19:36;;;;;;;11.40;8.40;;;;;;;9.29;95.19;97439.44;5045266;28;20193;-72
2021/10/19 02:22:02;;;;;;;10.80;8.50;;;;;;;9.19;95.38;97444.25;5068931;28;20247;-71
2021/10/19 02:24:27;;;;;;;12.90;8.50;;;;;;;9.33;94.88;97434.59;5071278;28;20203;-72
2021/10/19 02:26:53;;;;;;;9.70;7.73;;;;;;;9.11;95.16;97437.41;5054825;28;20614;-72
2021/10/19 02:29:19;;;;;;;8.77;7.27;;;;;;;9.15;95.03;97429.94;5042524;28;20186;-72
2021/10/19 02:31:45;;;;;;;8.03;7.23;;;;;;;9.14;95.35;97431.75;5054340;28;20196;-72
2021/10/19 02:34:11;;;;;;;10.03;7.77;;;;;;;9.31;93.59;97432.16;5071710;28;20227;-72
2021/10/19 02:36:37;;;;;;;10.33;7.60;;;;;;;9.47;92.96;97426.50;5067739;28;20285;-72
2021/10/19 02:39:06;;;;;;;8.93;6.83;;;;;;;9.21;93.88;97429.16;5025851;28;20694;-72
2021/10/19 02:41:36;;;;;;;8.83;7.47;;;;;;;9.42;93.14;97426.31;5067048;28;20212;-72
2021/10/19 02:44:02;;;;;;;9.57;7.43;;;;;;;9.32;92.92;97420.69;5056428;28;20200;-72
2021/10/19 02:46:31;;;;;;;10.40;6.70;;;;;;;9.41;92.79;97414.25;5060005;28;20185;-72
2021/10/19 02:48:57;;;;;;;7.10;6.40;;;;;;;9.50;92.23;97407.81;5062408;28;20178;-72
2021/10/19 02:51:22;;;;;;;8.27;5.57;;;;;;;9.62;90.17;97407.97;5058069;28;20212;-71
2021/10/19 02:53:47;;;;;;;7.17;5.83;;;;;;;9.65;90.03;97409.38;5069712;28;20181;-71
2021/10/19 02:56:13;;;;;;;8.57;6.13;;;;;;;9.68;89.58;97406.34;5068798;28;20193;-71
2021/10/19 02:58:38;;;;;;;6.90;5.70;;;;;;;9.84;88.27;97409.31;5061186;28;20181;-71
2021/10/19 03:01:03;;;;;;;7.90;6.13;;;;;;;9.83;88.13;97414.75;5047047;28;20205;-71
2021/10/19 03:03:29;;;;;;;9.07;5.10;;;;;;;9.95;87.44;97403.44;5053948;28;20213;-71
2021/10/19 03:05:55;;;;;;;6.97;5.87;;;;;;;10.00;87.26;97400.22;5071593;28;20606;-71
2021/10/19 03:08:20;;;;;;;6.47;5.27;;;;;;;9.96;87.43;97405.06;5071926;28;20184;-71
2021/10/19 03:10:46;;;;;;;7.53;5.73;;;;;;;9.93;87.36;97407.28;5063436;28;20641;-71
2021/10/19 03:13:11;;;;;;;6.07;5.40;;;;;;;9.99;87.47;97406.44;5041037;28;20222;-71
2021/10/19 03:15:36;;;;;;;7.67;5.80;;;;;;;9.93;86.99;97408.06;5069416;28;20184;-71
2021/10/19 03:18:02;;;;;;;7.13;5.60;;;;;;;9.88;87.89;97409.72;5035717;28;20185;-71
2021/10/19 03:20:30;;;;;;;8.37;5.73;;;;;;;9.97;87.35;97405.88;5053273;28;20181;-71
2021/10/19 03:22:55;;;;;;;7.67;5.83;;;;;;;9.97;87.45;97409.25;5070807;28;20185;-71
2021/10/19 03:25:21;;;;;;;7.67;5.77;;;;;;;9.99;87.12;97409.06;5056118;28;20661;-71
2021/10/19 03:27:46;;;;;;;7.20;5.60;;;;;;;10.02;86.37;97414.72;5051415;28;20637;-71
2021/10/19 03:30:11;;;;;;;6.83;5.03;;;;;;;10.00;86.57;97411.50;5060066;28;20182;-71
2021/10/19 03:32:37;;;;;;;6.60;5.73;;;;;;;10.02;85.91;97411.28;5066828;28;20664;-71
2021/10/19 03:35:03;;;;;;;7.37;5.70;;;;;;;9.97;85.27;97405.88;5057080;28;20684;-71
2021/10/19 03:37:28;;;;;;;7.57;5.70;;;;;;;9.97;85.69;97411.88;5066455;28;20269;-70
2021/10/19 03:39:53;;;;;;;8.73;6.30;;;;;;;10.09;85.43;97411.25;5065332;28;20201;-70
2021/10/19 03:42:19;;;;;;;9.00;6.33;;;;;;;9.92;85.21;97410.91;5062973;28;20205;-71
2021/10/19 03:44:44;;;;;;;9.73;5.77;;;;;;;9.96;85.42;97410.31;5019967;28;20182;-71
2021/10/19 03:47:10;;;;;;;8.53;5.97;;;;;;;10.02;84.73;97414.72;5065917;28;20606;-73
2021/10/19 03:49:35;;;;;;;8.67;5.33;;;;;;;10.07;84.80;97414.09;5037055;28;20282;-71
2021/10/19 03:52:00;;;;;;;6.60;5.50;;;;;;;10.06;84.83;97414.28;5053248;28;20201;-72
2021/10/19 03:54:26;;;;;;;7.77;5.67;;;;;;;10.18;84.20;97425.75;5065099;28;20638;-73
2021/10/19 03:56:52;;;;;;;7.40;5.43;;;;;;;10.18;84.42;97428.38;5056841;28;20218;-73
2021/10/19 03:59:17;;;;;;;7.40;5.13;;;;;;;10.14;84.71;97421.94;5069240;28;20184;-73
2021/10/19 04:01:42;;;;;;;6.03;5.20;;;;;;;10.05;84.65;97421.34;5062132;28;20201;-71
2021/10/19 04:04:08;;;;;;;7.47;5.33;;;;;;;10.18;84.56;97420.53;5060569;28;20576;-72
2021/10/19 04:06:33;;;;;;;7.43;5.40;;;;;;;10.23;83.61;97418.88;5046526;28;20190;-73
2021/10/19 04:08:59;;;;;;;8.47;5.27;;;;;;;10.20;84.48;97415.84;5054835;28;20193;-73
2021/10/19 04:11:24;;;;;;;7.60;5.67;;;;;;;10.24;83.43;97417.88;5065642;28;20226;-72
2021/10/19 04:13:50;;;;;;;7.13;4.97;;;;;;;10.29;83.30;97422.47;5061308;28;20264;-72
2021/10/19 04:16:15;;;;;;;9.00;5.10;;;;;;;10.12;84.17;97426.56;5060120;28;20550;-71
2021/10/19 04:18:41;;;;;;;7.47;4.97;;;;;;;10.11;84.81;97428.38;5064551;28;20268;-71
2021/10/19 04:21:06;;;;;;;7.93;5.43;;;;;;;10.32;83.71;97429.91;5070699;28;20193;-72
2021/10/19 04:23:31;;;;;;;5.87;4.90;;;;;;;10.26;83.33;97443.84;5066937;28;20192;-73
2021/10/19 04:25:57;;;;;;;5.40;4.90;;;;;;;10.14;84.05;97443.66;5058983;28;20181;-69
2021/10/19 04:28:22;;;;;;;5.90;5.03;;;;;;;10.15;83.61;97436.59;5070426;28;20324;-73
2021/10/19 04:30:50;;;;;;;6.03;5.03;;;;;;;10.24;83.69;97443.25;5050035;28;20190;-73
2021/10/19 04:33:16;;;;;;;7.10;5.40;;;;;;;10.34;83.42;97438.38;5065842;28;20181;-73
2021/10/19 04:35:41;;;;;;;10.10;5.93;;;;;;;10.27;83.46;97427.94;5063926;28;20190;-71
2021/10/19 04:38:07;;;;;;;6.33;5.17;;;;;;;10.21;83.91;97425.34;5062568;28;20273;-71
2021/10/19 04:40:32;;;;;;;8.20;5.23;;;;;;;10.30;83.53;97429.34;5062740;28;20186;-71
2021/10/19 04:42:57;;;;;;;6.17;5.30;;;;;;;10.29;83.37;97432.97;5058192;28;20190;-71
2021/10/19 04:45:23;;;;;;;11.93;6.20;;;;;;;10.37;83.20;97420.41;5043923;28;20191;-72
2021/10/19 04:47:49;;;;;;;8.23;5.37;;;;;;;10.51;82.65;97423.78;5060760;28;20230;-72
2021/10/19 04:50:15;;;;;;;10.47;6.07;;;;;;;10.64;82.03;97420.28;5041823;28;20182;-72
2021/10/19 04:52:41;;;;;;;5.77;5.17;;;;;;;10.53;82.47;97416.53;5067362;28;20199;-72
2021/10/19 04:55:07;;;;;;;6.53;5.47;;;;;;;10.54;82.50;97412.88;5066934;28;20174;-71
2021/10/19 04:57:32;;;;;;;6.93;5.33;;;;;;;10.58;82.61;97415.88;5064995;28;20655;-72
2021/10/19 04:59:58;;;;;;;8.13;5.00;;;;;;;10.49;82.56;97411.88;5063738;28;20259;-72
2021/10/19 05:02:23;;;;;;;7.77;5.40;;;;;;;10.54;82.43;97414.69;5064089;28;20209;-71
2021/10/19 05:04:48;;;;;;;6.50;5.60;;;;;;;10.68;81.70;97417.03;5059902;28;20202;-72
2021/10/19 05:07:14;;;;;;;7.97;6.03;;;;;;;10.70;81.61;97422.06;5042735;28;20240;-71
2021/10/19 05:09:39;;;;;;;7.63;5.40;;;;;;;10.62;82.43;97424.94;5056835;28;20182;-72
2021/10/19 05:12:05;;;;;;;6.83;5.27;;;;;;;10.52;82.54;97433.25;5067200;28;20225;-72
2021/10/19 05:14:30;;;;;;;8.03;5.50;;;;;;;10.45;82.83;97424.63;5066510;28;20260;-72
2021/10/19 05:16:55;;;;;;;7.80;5.87;;;;;;;10.51;82.40;97422.97;5065085;28;20185;-72
2021/10/19 05:19:21;;;;;;;7.93;5.70;;;;;;;10.48;82.65;97421.56;5068203;28;20584;-72
2021/10/19 05:21:46;;;;;;;8.43;6.23;;;;;;;10.67;81.96;97430.34;5070403;28;20232;-72
2021/10/19 05:24:11;;;;;;;8.50;6.17;;;;;;;10.71;81.27;97436.75;5069819;28;20182;-72
2021/10/19 05:26:37;;;;;;;7.30;5.60;;;;;;;10.66;81.94;97439.22;5062089;28;20185;-72
2021/10/19 05:29:03;;;;;;;11.47;6.70;;;;;;;10.59;83.08;97439.25;5065175;28;20265;-72
2021/10/19 05:31:28;;;;;;;7.70;5.87;;;;;;;10.74;83.29;97441.59;5049612;28;20543;-72
2021/10/19 05:33:54;;;;;;;7.13;6.13;;;;;;;10.64;83.86;97430.78;5046106;28;20178;-73
2021/10/19 05:36:19;;;;;;;9.07;6.13;;;;;;;10.69;83.53;97426.50;5060990;28;20220;-72
2021/10/19 05:38:44;;;;;;;7.53;5.97;;;;;;;10.59;84.26;97423.53;5062150;28;20653;-72
2021/10/19 05:41:10;;;;;;;7.43;6.20;;;;;;;10.47;84.06;97427.84;5044336;28;20205;-72
2021/10/19 05:43:35;;;;;;;6.83;5.63;;;;;;;10.39;84.63;97426.25;5069223;28;20181;-72
2021/10/19 05:46:01;;;;;;;8.37;6.23;;;;;;;10.58;84.00;97426.38;5066858;28;20219;-73
2021/10/19 05:48:26;;;;;;;9.23;6.17;;;;;;;10.72;83.49;97428.69;5058959;28;20182;-73
2021/10/19 05:50:52;;;;;;;7.60;6.30;;;;;;;10.88;82.56;97437.06;5060276;28;20187;-73
2021/10/19 05:53:17;;;;;;;8.30;5.80;;;;;;;10.91;82.48;97434.84;5066323;28;20181;-73
2021/10/19 05:55:42;;;;;;;8.73;6.53;;;;;;;10.78;83.55;97440.16;5044777;28;20235;-72
2021/10/19 05:58:08;;;;;;;8.90;6.67;;;;;;;10.79;83.05;97432.09;5068806;28;20205;-72
2021/10/19 06:00:33;;;;;;;7.43;5.73;;;;;;;10.93;82.81;97430.16;5058497;28;20205;-72
2021/10/19 06:02:59;;;;;;;8.77;6.23;;;;;;;10.89;82.99;97434.22;5062286;28;20181;-72
2021/10/19 06:05:24;;;;;;;8.27;6.23;;;;;;;10.95;83.17;97440.44;5058694;28;20200;-73
2021/10/19 06:07:51;;;;;;;7.07;5.80;;;;;;;11.04;82.49;97434.72;5072871;28;20200;-72
2021/10/19 06:10:20;;;;;;;9.47;6.30;;;;;;;11.09;82.21;97439.34;5065053;28;20264;-71
2021/10/19 06:12:45;;;;;;;8.10;5.87;;;;;;;11.19;82.29;97442.31;5070290;28;20275;-73
2021/10/19 06:15:11;;;;;;;8.33;6.50;;;;;;;11.18;82.36;97436.25;5038490;28;20194;-73
2021/10/19 06:17:36;;;;;;;7.33;6.10;;;;;;;11.16;82.74;97445.34;5051831;28;20186;-73
2021/10/19 06:20:03;;;;;;;7.10;6.10;;;;;;;11.24;83.03;97447.72;5040808;28;20190;-74
2021/10/19 06:22:29;;;;;;;6.40;5.50;;;;;;;11.22;82.87;97439.22;5073681;28;20681;-74
2021/10/19 06:24:55;;;;;;;7.67;6.13;;;;;;;11.31;82.74;97442.41;5042487;28;20204;-74
2021/10/19 06:27:20;;;;;;;7.77;6.10;;;;;;;11.48;82.13;97441.63;5054527;28;20224;-74
2021/10/19 06:29:45;;;;;;;9.53;5.93;;;;;;;11.49;82.59;97439.81;5056169;28;20185;-73
2021/10/19 06:32:11;;;;;;;11.90;6.37;;;;;;;11.39;82.81;97450.00;5061899;28;20608;-74
2021/10/19 06:34:36;;;;;;;7.00;5.57;;;;;;;11.42;82.46;97463.50;5061499;28;20212;-74
2021/10/19 06:37:02;;;;;;;8.10;5.50;;;;;;;11.64;81.23;97453.41;5056330;28;20565;-74
2021/10/19 06:39:27;;;;;;;8.97;5.97;;;;;;;11.47;81.98;97455.78;5066943;28;20580;-75
2021/10/19 06:41:52;;;;;;;8.13;4.87;;;;;;;11.64;84.02;97450.78;5065829;28;20289;-71
2021/10/19 06:44:18;;;;;;;7.50;5.93;;;;;;;12.64;87.89;97438.16;5044967;28;20740;-71
2021/10/19 06:46:43;;;;;;;7.67;5.50;;;;;;;13.20;80.23;97456.19;5063232;28;20188;-71
2021/10/19 06:49:09;;;;;;;9.57;6.13;;;;;;;13.25;75.47;97445.78;5066479;28;20221;-74
2021/10/19 06:51:34;;;;;;;8.77;5.73;;;;;;;13.04;74.66;97441.00;5071111;28;20185;-74
2021/10/19 06:54:00;;;;;;;8.57;6.30;;;;;;;12.68;75.38;97447.19;5054643;28;20186;-74
2021/10/19 06:56:25;;;;;;;8.37;5.50;;;;;;;12.47;76.10;97445.84;5069941;28;20620;-74
2021/10/19 06:58:50;;;;;;;9.33;5.30;;;;;;;12.22;77.15;97445.94;5065052;28;20230;-74
2021/10/19 07:01:17;;;;;;;6.87;4.77;;;;;;;12.21;77.62;97443.53;5046278;28;20281;-74
2021/10/19 07:03:42;;;;;;;8.33;5.33;;;;;;;12.30;76.88;97452.75;5054773;28;20265;-74
2021/10/19 07:06:08;;;;;;;7.77;5.87;;;;;;;12.19;76.89;97461.38;5065702;28;20186;-74
2021/10/19 07:08:33;;;;;;;8.87;6.43;;;;;;;12.06;77.40;97464.94;5057901;28;20220;-74
2021/10/19 07:11:00;;;;;;;10.07;6.03;;;;;;;11.98;77.62;97471.25;5058588;28;20253;-73
2021/10/19 07:13:26;;;;;;;7.77;5.73;;;;;;;11.96;78.40;97478.59;5069499;28;20173;-74
2021/10/19 07:15:55;;;;;;;8.77;5.70;;;;;;;11.93;78.12;97472.94;5067731;28;20662;-73
2021/10/19 07:18:21;;;;;;;8.43;6.30;;;;;;;11.86;79.27;97475.66;5058930;28;20189;-74
2021/10/19 07:20:48;;;;;;;8.17;6.30;;;;;;;12.03;78.59;97481.94;5063187;28;20190;-74
2021/10/19 07:23:13;;;;;;;12.93;5.73;;;;;;;11.91;79.07;97470.56;5063173;28;20265;-74
2021/10/19 07:25:39;;;;;;;10.00;5.23;;;;;;;12.00;78.90;97474.50;5061258;28;20268;-74
2021/10/19 07:28:05;;;;;;;6.90;5.43;;;;;;;12.19;77.35;97469.25;5071015;28;20185;-74
2021/10/19 07:30:30;;;;;;;8.23;5.70;;;;;;;12.27;77.77;97474.19;5066617;28;20208;-74
2021/10/19 07:32:55;;;;;;;6.50;4.80;;;;;;;12.18;77.44;97476.31;5067016;28;20545;-74
2021/10/19 07:35:22;;;;;;;9.23;5.33;;;;;;;12.19;77.25;97477.94;5061352;28;20193;-74
2021/10/19 07:37:49;;;;;;;7.93;5.50;;;;;;;12.30;76.76;97473.75;5072243;28;20214;-74
2021/10/19 07:40:15;;;;;;;7.80;5.47;;;;;;;12.32;77.32;97464.63;5073047;28;20331;-73
2021/10/19 07:42:41;;;;;;;8.47;5.37;;;;;;;12.29;78.98;97493.19;5070182;28;20202;-71
2021/10/19 07:45:10;;;;;;;6.33;5.23;;;;;;;12.65;75.80;97484.47;5067087;28;20550;-74
2021/10/19 07:47:56;;;;;;;7.73;5.30;;;;;;;12.74;75.78;97483.13;5061446;28;20553;-74
2021/10/19 07:50:22;;;;;;;7.60;5.10;;;;;;;12.69;75.39;97491.69;5062076;28;20298;-74
2021/10/19 07:52:49;;;;;;;6.50;5.13;;;;;;;12.97;74.10;97492.94;5055432;28;20312;-74
2021/10/19 07:55:15;;;;;;;6.17;4.53;;;;;;;12.99;73.93;97496.94;5059577;28;20662;-74
2021/10/19 07:57:45;;;;;;;6.63;5.30;;;;;;;13.00;74.41;97495.09;5061815;28;20182;-74
2021/10/19 08:00:13;;;;;;;11.60;5.37;;;;;;;13.19;73.94;97494.06;5064162;28;20182;-74
2021/10/19 08:02:41;;;;;;;8.27;5.43;;;;;;;13.34;73.58;97494.44;5068964;28;20213;-74
2021/10/19 08:05:14;;;;;;;6.23;5.13;;;;;;;13.39;73.45;97489.28;5061195;28;20634;-74
2021/10/19 08:07:45;;;;;;;5.97;4.97;;;;;;;13.60;72.47;97482.66;5057801;28;20534;-74
2021/10/19 08:10:13;;;;;;;8.60;5.27;;;;;;;13.53;72.92;97487.25;5065196;28;20660;-74
2021/10/19 08:12:38;;;;;;;7.03;5.30;;;;;;;13.68;72.97;97491.03;5064627;28;20225;-74
2021/10/19 08:15:05;;;;;;;7.00;4.70;;;;;;;13.59;72.68;97497.69;5056955;28;20210;-73
2021/10/19 08:17:30;;;;;;;5.63;4.87;;;;;;;13.77;72.17;97512.56;5042134;28;20554;-73
2021/10/19 08:19:59;;;;;;;6.47;4.83;;;;;;;13.93;71.66;97513.72;5066351;28;20185;-73
2021/10/19 08:22:33;;;;;;;6.00;4.87;;;;;;;13.88;71.72;97522.31;5069141;28;20553;-73
2021/10/19 08:25:01;;;;;;;7.23;6.17;;;;;;;13.80;73.76;97521.84;5044514;28;20541;-73
2021/10/19 08:27:27;;;;;;;7.60;5.67;;;;;;;13.69;75.04;97519.00;5065393;28;20189;-74
2021/10/19 08:29:52;;;;;;;9.27;6.10;;;;;;;13.67;75.64;97523.66;5067590;28;20265;-73
2021/10/19 08:32:19;;;;;;;8.60;5.63;;;;;;;13.74;76.00;97520.94;5067065;28;20238;-73
2021/10/19 08:34:44;;;;;;;9.17;5.93;;;;;;;13.82;75.75;97525.84;5058732;28;20189;-74
2021/10/19 08:37:10;;;;;;;9.00;5.63;;;;;;;13.85;75.53;97520.13;5062568;28;20198;-73
2021/10/19 08:39:36;;;;;;;7.90;6.20;;;;;;;14.09;74.62;97526.22;5060352;28;20182;-73
2021/10/19 08:42:02;;;;;;;9.87;6.40;;;;;;;14.19;74.14;97521.16;5059485;28;20214;-74
2021/10/19 08:44:28;;;;;;;6.70;4.43;;;;;;;14.12;72.91;97521.28;5057758;28;20669;-74
2021/10/19 08:46:54;;;;;;;5.27;4.63;;;;;;;14.15;72.08;97528.72;5039164;28;20674;-74
2021/10/19 08:49:19;;;;;;;7.77;4.83;;;;;;;14.04;72.62;97545.34;5063476;28;20174;-73
2021/10/19 08:51:45;;;;;;;5.53;4.20;;;;;;;13.74;75.09;97545.44;5064208;28;20267;-73
2021/10/19 08:54:10;;;;;;;5.13;4.30;;;;;;;13.66;77.05;97553.66;5067148;28;20596;-73
2021/10/19 08:56:37;;;;;;;6.90;4.50;;;;;;;13.46;79.29;97557.66;5063602;28;20181;-74
2021/10/19 08:59:03;;;;;;;6.50;4.50;;;;;;;13.42;80.22;97549.41;5057191;28;20182;-74
2021/10/19 09:01:36;;;;;;;6.50;4.67;;;;;;;13.25;82.15;97549.25;5067819;28;20590;-75
2021/10/19 09:04:07;;;;;;;6.63;3.97;;;;;;;13.14;83.96;97542.13;5067165;28;20510;-75
2021/10/19 09:06:34;;;;;;;6.80;5.00;;;;;;;13.10;85.88;97524.31;5069385;28;20634;-74
2021/10/19 09:09:23;;;;;;;6.33;4.73;;;;;;;12.75;87.67;97532.88;5059955;28;20178;-75
2021/10/19 09:11:49;;;;;;;6.83;5.80;;;;;;;12.57;89.22;97526.84;5073944;28;20702;-75
2021/10/19 09:14:16;;;;;;;4.63;4.10;;;;;;;12.64;88.72;97528.38;5063863;28;20291;-75
2021/10/19 09:16:47;;;;;;;5.73;4.00;;;;;;;12.55;89.75;97521.78;5061693;28;20182;-75
2021/10/19 09:19:21;;;;;;;4.27;3.60;;;;;;;12.67;89.72;97525.28;5047631;28;20638;-75
2021/10/19 09:22:01;;;;;;;5.83;3.97;;;;;;;12.65;89.35;97516.81;5067228;28;20201;-75
2021/10/19 09:24:32;;;;;;;3.53;3.10;;;;;;;12.58;89.59;97520.56;5065371;28;20170;-74
2021/10/19 09:27:03;;;;;;;4.07;2.80;;;;;;;12.71;89.74;97515.13;5063019;28;20193;-75
2021/10/19 09:29:33;;;;;;;5.50;3.47;;;;;;;12.79;89.65;97520.88;5070531;28;20264;-75
2021/10/19 09:32:00;;;;;;;5.03;3.00;;;;;;;12.80;89.69;97513.81;5046658;28;20321;-75
2021/10/19 09:34:29;;;;;;;3.97;2.30;;;;;;;12.71;89.30;97518.56;5062908;28;20181;-74
2021/10/19 09:36:54;;;;;;;3.20;2.27;;;;;;;12.87;88.65;97517.16;5068223;28;20239;-75
2021/10/19 09:39:50;;;;;;;2.43;2.23;;;;;;;13.00;88.18;97521.41;5057740;28;20571;-75
2021/10/19 09:42:27;;;;;;;2.73;2.40;;;;;;;13.11;88.09;97513.56;5057791;28;20209;-75
2021/10/19 09:44:58;;;;;;;2.30;2.10;;;;;;;13.17;88.75;97519.78;5050389;28;20193;-76
2021/10/19 09:47:28;;;;;;;3.53;2.37;;;;;;;13.17;89.76;97512.69;5055294;28;20178;-75
2021/10/19 09:49:55;;;;;;;3.40;2.40;;;;;;;13.09;92.24;97513.00;5062563;28;20529;-75
2021/10/19 09:52:21;;;;;;;2.70;2.50;;;;;;;13.23;92.05;97511.81;5061749;28;20207;-75
2021/10/19 09:54:52;;;;;;;2.43;2.23;;;;;;;13.18;93.14;97516.13;5058238;28;20190;-75
2021/10/19 09:57:18;;;;;;;2.63;2.43;;;;;;;13.33;92.61;97508.63;5060864;28;20224;-75
2021/10/19 09:59:44;;;;;;;3.43;2.70;;;;;;;13.15;93.58;97516.59;5033296;28;20182;-75
2021/10/19 10:02:13;;;;;;;3.20;2.27;;;;;;;13.24;93.01;97515.25;5069015;28;20198;-74
2021/10/19 10:04:40;;;;;;;2.23;2.13;;;;;;;13.41;91.69;97518.03;5059378;28;20677;-75
2021/10/19 10:07:10;;;;;;;3.13;2.33;;;;;;;13.44;90.82;97518.38;5066987;28;20181;-74
2021/10/19 10:09:36;;;;;;;6.50;2.27;;;;;;;13.26;90.84;97527.13;5060339;28;20522;-75
2021/10/19 10:12:06;;;;;;;3.03;2.17;;;;;;;13.54;89.67;97521.25;5070589;28;20707;-74
2021/10/19 10:14:40;;;;;;;2.50;2.30;;;;;;;13.59;89.23;97513.50;5055323;28;20182;-75
2021/10/19 10:17:10;;;;;;;3.30;2.00;;;;;;;13.37;90.09;97507.16;5056784;28;20185;-75
2021/10/19 10:19:35;;;;;;;2.80;2.47;;;;;;;13.30;90.89;97501.19;5066211;28;20610;-74
2021/10/19 10:22:13;;;;;;;2.57;2.37;;;;;;;13.41;89.91;97484.59;5064922;28;20205;-74
2021/10/19 10:24:40;;;;;;;4.40;2.40;;;;;;;13.45;90.40;97487.56;5070518;28;20216;-74
2021/10/19 10:27:15;;;;;;;3.87;2.60;;;;;;;13.64;89.69;97502.25;5069192;28;20627;-75
2021/10/19 10:29:43;;;;;;;2.93;2.40;;;;;;;13.71;88.98;97501.09;5057868;28;20197;-74
2021/10/19 10:32:28;;;;;;;2.27;2.17;;;;;;;13.77;88.47;97495.94;5057987;28;20186;-75
2021/10/19 10:35:10;;;;;;;2.40;2.13;;;;;;;13.76;88.04;97486.47;5051945;28;20531;-75
2021/10/19 10:37:36;;;;;;;2.67;2.47;;;;;;;13.64;89.42;97483.81;5062801;28;20196;-74
2021/10/19 10:40:03;;;;;;;2.80;2.50;;;;;;;13.70;89.61;97478.44;5071148;28;20177;-75
2021/10/19 10:42:39;;;;;;;3.00;2.70;;;;;;;13.74;89.42;97486.69;5069415;28;20568;-75
2021/10/19 10:45:22;;;;;;;3.10;2.80;;;;;;;14.02;87.79;97481.50;5069119;28;20173;-75
2021/10/19 10:47:56;;;;;;;5.57;2.80;;;;;;;14.03;86.96;97483.13;5065542;28;20625;-75
2021/10/19 10:50:22;;;;;;;3.60;2.90;;;;;;;14.07;86.48;97489.53;5062458;28;20182;-74
2021/10/19 10:53:08;;;;;;;2.50;2.30;;;;;;;13.97;87.59;97486.69;5064339;28;20633;-75
2021/10/19 10:55:43;;;;;;;3.00;2.60;;;;;;;14.03;86.65;97493.66;5057523;28;20243;-75
2021/10/19 10:58:09;;;;;;;2.87;2.67;;;;;;;14.25;85.33;97479.88;5054601;28;20197;-75
2021/10/19 11:00:35;;;;;;;3.30;3.00;;;;;;;14.09;86.44;97476.13;5063277;28;20196;-75
2021/10/19 11:03:15;;;;;;;3.23;2.93;;;;;;;14.23;86.34;97471.38;5061403;28;20670;-75
2021/10/19 11:05:58;;;;;;;3.37;2.97;;;;;;;14.05;87.84;97467.84;5069383;28;20619;-75
2021/10/19 11:08:28;;;;;;;3.37;3.10;;;;;;;14.10;89.01;97461.88;5057297;28;20209;-75
2021/10/19 11:11:03;;;;;;;4.10;3.57;;;;;;;14.14;89.28;97457.78;5060769;28;20200;-75
2021/10/19 11:13:31;;;;;;;4.20;3.20;;;;;;;13.98;89.14;97454.03;5036111;28;20541;-75
2021/10/19 11:15:56;;;;;;;4.00;3.23;;;;;;;14.11;89.17;97453.75;5064622;28;20189;-75
2021/10/19 11:18:24;;;;;;;4.53;3.27;;;;;;;14.20;89.08;97446.31;5067798;28;20204;-75
2021/10/19 11:20:56;;;;;;;4.13;3.13;;;;;;;14.30;89.36;97441.22;5055944;28;20181;-74
2021/10/19 11:23:22;;;;;;;4.00;3.57;;;;;;;14.37;88.76;97433.22;5062535;28;20170;-75
2021/10/19 11:25:48;;;;;;;3.50;3.20;;;;;;;14.44;88.44;97432.03;5059506;28;20236;-75
2021/10/19 11:28:13;;;;;;;4.37;3.40;;;;;;;14.80;87.04;97437.97;5062035;28;20186;-75
2021/10/19 11:30:39;;;;;;;4.20;3.23;;;;;;;14.82;85.69;97433.25;5043370;28;20185;-75